Time;durP1;ratioP1;P1;durP2;ratioP2;P2;SDS_P1;SDS_P2;PMS_P1;PMS_P2;Temp;Humidity;BMP_temperature;BMP_pressure;BME280_temperature;BME280_humidity;BME280_pressure;Samples;Min_cycle;Max_cycle;Signal;HPM_P1;HPM_P2
2022/10/19 00:01:08;;;;;;;5.65;1.80;;;12.00;80.20;;;;;;5009195;28;20049;-65
2022/10/19 00:03:34;;;;;;;3.53;1.63;;;12.00;80.20;;;;;;5010284;28;20491;-64
2022/10/19 00:06:14;;;;;;;2.08;1.65;;;12.00;80.10;;;;;;5010375;28;20129;-65
2022/10/19 00:08:40;;;;;;;4.20;1.52;;;12.00;80.10;;;;;;5008017;28;20474;-65
2022/10/19 00:11:06;;;;;;;4.25;1.73;;;12.00;80.10;;;;;;5010214;28;20109;-66
2022/10/19 00:13:31;;;;;;;6.38;1.92;;;12.00;80.80;;;;;;5009080;28;20030;-66
2022/10/19 00:15:57;;;;;;;4.57;1.98;;;11.90;80.10;;;;;;5014270;28;20034;-66
2022/10/19 00:18:22;;;;;;;2.53;1.77;;;12.00;80.20;;;;;;5012402;28;20037;-64
2022/10/19 00:20:48;;;;;;;4.28;1.73;;;11.90;80.10;;;;;;5010255;28;20080;-64
2022/10/19 00:23:13;;;;;;;3.85;1.80;;;11.90;80.20;;;;;;5010412;28;20022;-66
2022/10/19 00:25:39;;;;;;;5.75;2.10;;;11.90;80.30;;;;;;5009920;28;20040;-66
2022/10/19 00:28:05;;;;;;;5.70;1.60;;;11.90;80.20;;;;;;5009427;28;20050;-65
2022/10/19 00:30:30;;;;;;;3.95;1.60;;;11.80;80.30;;;;;;5009971;28;20064;-65
2022/10/19 00:32:56;;;;;;;3.17;1.80;;;11.80;80.30;;;;;;5009746;28;20026;-66
2022/10/19 00:35:21;;;;;;;3.88;1.60;;;11.80;80.30;;;;;;5009791;28;20037;-66
2022/10/19 00:37:47;;;;;;;5.05;1.88;;;11.80;80.30;;;;;;5009586;28;20018;-65
2022/10/19 00:40:12;;;;;;;6.60;2.05;;;11.80;80.20;;;;;;5009139;28;20037;-65
2022/10/19 00:42:38;;;;;;;6.00;2.10;;;11.80;80.20;;;;;;5009705;28;20034;-65
2022/10/19 00:45:12;;;;;;;3.60;1.70;;;11.80;80.40;;;;;;5008674;28;20031;-65
2022/10/19 00:47:37;;;;;;;4.28;1.70;;;11.80;80.60;;;;;;5009683;28;20057;-65
2022/10/19 00:50:04;;;;;;;3.70;1.80;;;11.70;80.50;;;;;;5008994;28;20053;-66
2022/10/19 00:52:30;;;;;;;3.70;1.60;;;11.70;80.50;;;;;;5009302;28;20032;-65
2022/10/19 00:54:57;;;;;;;2.60;1.70;;;11.70;80.60;;;;;;5009258;28;20021;-65
2022/10/19 00:57:22;;;;;;;3.90;1.67;;;11.70;80.60;;;;;;5008898;28;20476;-65
2022/10/19 00:59:49;;;;;;;2.15;1.38;;;11.70;80.60;;;;;;5007258;28;20022;-65
2022/10/19 01:02:15;;;;;;;3.20;1.50;;;11.70;80.60;;;;;;5008096;28;20080;-65
2022/10/19 01:04:46;;;;;;;5.07;1.60;;;11.70;80.50;;;;;;5007644;28;20022;-65
2022/10/19 01:07:13;;;;;;;4.18;1.98;;;11.70;81.00;;;;;;5008872;28;20026;-66
2022/10/19 01:09:38;;;;;;;3.92;2.10;;;11.70;80.40;;;;;;5008788;28;20069;-65
2022/10/19 01:12:15;;;;;;;5.75;1.75;;;11.60;80.40;;;;;;5008511;28;20058;-65
2022/10/19 01:14:51;;;;;;;3.08;1.63;;;11.60;80.50;;;;;;5008298;28;20164;-65
2022/10/19 01:17:31;;;;;;;1.85;1.40;;;11.60;80.50;;;;;;5007523;28;20036;-65
2022/10/19 01:20:27;;;;;;;3.75;1.70;;;11.70;80.50;;;;;;5007413;28;20026;-65
2022/10/19 01:23:10;;;;;;;2.88;1.60;;;11.70;80.30;;;;;;5008125;28;20029;-65
2022/10/19 01:26:00;;;;;;;2.20;1.40;;;11.70;80.30;;;;;;5008541;28;20037;-64
2022/10/19 01:28:52;;;;;;;1.83;1.20;;;11.70;80.20;;;;;;5006680;28;20022;-65
2022/10/19 01:31:30;;;;;;;3.22;1.50;;;11.70;80.10;;;;;;5007345;28;20054;-64
2022/10/19 01:34:03;;;;;;;2.67;1.30;;;11.70;80.10;;;;;;5012647;28;20098;-65
2022/10/19 01:36:43;;;;;;;3.83;1.23;;;11.70;80.00;;;;;;5007291;28;20029;-65
2022/10/19 01:39:30;;;;;;;3.33;1.15;;;11.70;80.50;;;;;;5006569;28;20092;-65
2022/10/19 01:42:15;;;;;;;3.03;1.20;;;11.60;79.80;;;;;;5007968;28;20092;-66
2022/10/19 01:44:54;;;;;;;3.03;1.13;;;11.60;79.90;;;;;;5007289;28;20113;-66
2022/10/19 01:47:32;;;;;;;2.97;1.13;;;11.50;80.00;;;;;;5007779;28;20026;-65
2022/10/19 01:50:06;;;;;;;2.13;1.00;;;11.50;80.00;;;;;;5007044;28;20053;-65
2022/10/19 01:52:32;;;;;;;2.20;0.98;;;11.50;79.90;;;;;;5005936;28;20018;-66
2022/10/19 01:55:00;;;;;;;2.65;0.95;;;11.50;79.80;;;;;;5008603;28;20040;-66
2022/10/19 01:57:31;;;;;;;2.53;1.10;;;11.50;79.80;;;;;;5007370;28;20034;-66
2022/10/19 01:59:57;;;;;;;3.08;1.00;;;11.50;79.80;;;;;;5008609;28;20030;-64
2022/10/19 02:02:25;;;;;;;2.10;0.90;;;11.50;80.30;;;;;;5008205;28;20030;-66
2022/10/19 02:04:54;;;;;;;3.28;1.10;;;11.40;79.70;;;;;;5008720;28;20053;-65
2022/10/19 02:07:21;;;;;;;4.00;1.15;;;11.40;79.80;;;;;;5008374;28;20029;-65
2022/10/19 02:09:47;;;;;;;2.30;1.00;;;11.40;79.80;;;;;;5009072;28;20015;-66
2022/10/19 02:12:14;;;;;;;2.95;0.90;;;11.40;79.70;;;;;;5010446;28;20032;-66
2022/10/19 02:14:44;;;;;;;1.58;0.80;;;11.40;79.70;;;;;;5011743;28;20057;-66
2022/10/19 02:17:17;;;;;;;1.85;0.88;;;11.40;79.70;;;;;;5014658;28;20052;-66
2022/10/19 02:19:43;;;;;;;2.47;1.00;;;11.40;79.60;;;;;;5011535;28;20443;-66
2022/10/19 02:22:10;;;;;;;2.22;0.95;;;11.30;79.60;;;;;;5011880;28;20052;-66
2022/10/19 02:24:36;;;;;;;0.70;0.70;;;11.30;79.60;;;;;;5010234;28;20480;-65
2022/10/19 02:27:04;;;;;;;2.28;0.90;;;11.30;79.60;;;;;;5010449;28;20048;-65
2022/10/19 02:29:32;;;;;;;2.33;0.95;;;11.30;79.50;;;;;;5012292;28;20498;-66
2022/10/19 02:31:58;;;;;;;2.28;0.80;;;11.20;79.50;;;;;;5010501;28;20464;-66
2022/10/19 02:34:23;;;;;;;3.42;0.93;;;11.20;79.50;;;;;;5011348;28;20029;-65
2022/10/19 02:36:49;;;;;;;1.55;0.93;;;11.20;79.60;;;;;;5015903;28;20030;-66
2022/10/19 02:39:15;;;;;;;4.68;1.42;;;11.10;79.50;;;;;;5016127;28;20115;-66
2022/10/19 02:42:03;;;;;;;2.58;1.10;;;11.10;79.50;;;;;;5013861;28;20065;-66
2022/10/19 02:44:49;;;;;;;1.75;0.80;;;11.10;79.50;;;;;;5015277;28;20492;-65
2022/10/19 02:47:20;;;;;;;3.00;1.10;;;11.10;79.60;;;;;;5015548;28;20026;-65
2022/10/19 02:49:46;;;;;;;3.15;1.30;;;11.00;79.50;;;;;;5015406;28;20014;-65
2022/10/19 02:52:13;;;;;;;2.47;1.20;;;11.00;79.60;;;;;;5014972;28;20033;-66
2022/10/19 02:54:41;;;;;;;2.78;1.27;;;11.00;79.60;;;;;;5014351;28;20038;-65
2022/10/19 02:57:24;;;;;;;2.75;1.17;;;11.00;79.70;;;;;;5012609;28;20412;-66
2022/10/19 02:59:51;;;;;;;2.90;1.27;;;11.10;79.80;;;;;;5014614;28;20066;-66
2022/10/19 03:02:17;;;;;;;3.38;1.20;;;11.10;79.80;;;;;;5015129;28;20104;-66
2022/10/19 03:04:44;;;;;;;2.88;1.30;;;11.10;79.70;;;;;;5016246;28;20079;-66
2022/10/19 03:07:13;;;;;;;5.15;1.30;;;11.10;79.70;;;;;;5016290;28;20053;-65
2022/10/19 03:09:39;;;;;;;2.90;1.30;;;11.10;79.70;;;;;;5015685;28;20065;-66
2022/10/19 03:12:05;;;;;;;3.03;1.40;;;11.10;79.80;;;;;;5015989;28;20021;-66
2022/10/19 03:14:30;;;;;;;2.85;1.20;;;11.10;79.80;;;;;;5015893;28;20030;-65
2022/10/19 03:16:56;;;;;;;3.42;1.42;;;11.10;79.80;;;;;;5014819;28;20037;-65
2022/10/19 03:19:21;;;;;;;2.85;1.50;;;11.10;79.80;;;;;;5015319;28;20030;-66
2022/10/19 03:21:47;;;;;;;2.78;1.17;;;11.10;79.90;;;;;;5014814;28;20030;-66
2022/10/19 03:24:12;;;;;;;2.22;1.38;;;11.10;79.90;;;;;;5014608;28;20060;-65
2022/10/19 03:26:38;;;;;;;3.08;1.63;;;11.10;79.90;;;;;;5014503;28;20057;-65
2022/10/19 03:29:03;;;;;;;2.22;1.35;;;11.10;80.50;;;;;;5013225;28;20029;-65
2022/10/19 03:31:29;;;;;;;3.50;1.35;;;11.10;79.90;;;;;;5012237;28;20033;-65
2022/10/19 03:33:55;;;;;;;2.72;1.30;;;11.10;79.90;;;;;;5014840;28;20022;-65
2022/10/19 03:36:22;;;;;;;2.08;1.20;;;11.10;79.90;;;;;;5014861;28;20045;-65
2022/10/19 03:38:53;;;;;;;2.72;1.40;;;11.10;79.90;;;;;;5014964;28;20059;-65
2022/10/19 03:41:20;;;;;;;2.88;1.35;;;11.10;80.10;;;;;;5011917;28;20032;-65
2022/10/19 03:43:46;;;;;;;1.77;1.30;;;11.00;80.20;;;;;;5010263;28;20515;-65
2022/10/19 03:46:11;;;;;;;5.38;1.60;;;11.00;80.30;;;;;;5011018;28;20054;-65
2022/10/19 03:48:37;;;;;;;3.25;1.20;;;11.00;80.30;;;;;;5010686;28;20629;-65
2022/10/19 03:51:05;;;;;;;2.70;1.30;;;11.00;80.40;;;;;;5009229;28;20018;-65
2022/10/19 03:53:32;;;;;;;3.58;1.15;;;11.00;80.40;;;;;;5011083;28;20101;-65
2022/10/19 03:56:05;;;;;;;2.35;1.15;;;11.00;80.40;;;;;;5011515;28;20029;-65
2022/10/19 03:58:33;;;;;;;2.00;1.10;;;11.00;80.40;;;;;;5012281;28;20026;-66
2022/10/19 04:00:59;;;;;;;1.98;1.10;;;11.10;80.50;;;;;;5012227;28;20053;-65
2022/10/19 04:03:25;;;;;;;1.63;1.00;;;11.10;80.40;;;;;;5011386;28;20042;-65
2022/10/19 04:05:51;;;;;;;1.83;1.10;;;11.00;80.40;;;;;;5010749;28;20412;-65
2022/10/19 04:08:17;;;;;;;3.20;1.00;;;11.10;80.40;;;;;;5009914;28;20504;-65
2022/10/19 04:10:43;;;;;;;2.60;1.10;;;11.10;80.40;;;;;;5009995;28;20025;-66
2022/10/19 04:13:09;;;;;;;1.40;1.00;;;11.00;80.40;;;;;;5009952;28;20022;-66
2022/10/19 04:15:35;;;;;;;3.75;1.15;;;11.00;80.40;;;;;;5012205;28;20026;-66
2022/10/19 04:18:01;;;;;;;3.38;1.10;;;11.10;80.50;;;;;;5009400;28;20041;-65
2022/10/19 04:20:26;;;;;;;2.28;0.98;;;11.00;80.50;;;;;;5010102;28;20030;-66
2022/10/19 04:22:52;;;;;;;1.23;0.90;;;11.00;80.40;;;;;;5009705;28;20018;-66
2022/10/19 04:25:17;;;;;;;2.75;1.00;;;11.00;80.50;;;;;;5009878;28;20428;-66
2022/10/19 04:27:44;;;;;;;2.05;1.10;;;11.00;80.60;;;;;;5008969;28;20025;-65
2022/10/19 04:30:09;;;;;;;2.65;1.10;;;11.00;80.60;;;;;;5009322;28;20018;-65
2022/10/19 04:32:35;;;;;;;3.33;1.30;;;11.00;80.70;;;;;;5009537;28;20033;-65
2022/10/19 04:35:01;;;;;;;2.33;1.00;;;11.00;80.70;;;;;;5010084;28;20037;-65
2022/10/19 04:37:26;;;;;;;3.97;1.17;;;11.00;80.80;;;;;;5009839;28;20056;-65
2022/10/19 04:39:52;;;;;;;3.45;0.90;;;11.00;80.80;;;;;;5009940;28;20025;-64
2022/10/19 04:42:17;;;;;;;1.48;0.90;;;11.00;80.80;;;;;;5009348;28;20025;-65
2022/10/19 04:44:43;;;;;;;1.50;0.85;;;11.00;80.70;;;;;;5008835;28;20026;-65
2022/10/19 04:47:08;;;;;;;4.03;1.20;;;11.00;80.80;;;;;;5009113;28;20065;-67
2022/10/19 04:49:34;;;;;;;4.55;1.17;;;10.90;80.80;;;;;;5008378;28;20408;-65
2022/10/19 04:51:59;;;;;;;3.95;1.10;;;10.90;81.00;;;;;;5009417;28;20493;-65
2022/10/19 04:54:25;;;;;;;2.20;1.00;;;10.90;81.00;;;;;;5009374;28;20037;-66
2022/10/19 04:56:52;;;;;;;3.20;1.10;;;10.90;81.10;;;;;;5009531;28;20041;-65
2022/10/19 04:59:18;;;;;;;1.50;0.80;;;10.90;81.10;;;;;;5007733;28;20022;-65
2022/10/19 05:01:43;;;;;;;2.65;0.90;;;10.90;81.10;;;;;;5007761;28;20143;-65
2022/10/19 05:04:09;;;;;;;3.88;1.10;;;10.80;81.00;;;;;;5006274;28;20500;-66
2022/10/19 05:06:35;;;;;;;2.90;1.10;;;10.80;81.00;;;;;;5007727;28;20029;-65
2022/10/19 05:09:01;;;;;;;3.00;1.20;;;10.80;81.10;;;;;;5003806;28;20535;-66
2022/10/19 05:11:26;;;;;;;2.72;1.20;;;10.80;81.00;;;;;;5007908;28;20065;-63
2022/10/19 05:13:52;;;;;;;2.22;1.08;;;10.80;81.00;;;;;;5001287;28;20113;-63
2022/10/19 05:16:21;;;;;;;1.50;0.93;;;10.80;80.80;;;;;;5002137;28;20034;-64
2022/10/19 05:18:51;;;;;;;3.63;1.10;;;10.80;80.80;;;;;;5006524;28;20117;-64
2022/10/19 05:21:19;;;;;;;3.50;1.20;;;10.70;80.90;;;;;;5006357;28;20025;-64
2022/10/19 05:23:45;;;;;;;2.85;1.10;;;10.70;81.00;;;;;;5005926;28;20022;-65
2022/10/19 05:26:13;;;;;;;1.42;1.00;;;10.70;81.00;;;;;;5001561;28;20060;-64
2022/10/19 05:28:39;;;;;;;1.67;1.00;;;10.60;81.00;;;;;;5005651;28;20052;-64
2022/10/19 05:31:07;;;;;;;3.13;0.90;;;10.60;81.10;;;;;;5007068;28;20439;-64
2022/10/19 05:33:33;;;;;;;1.70;0.95;;;10.50;81.10;;;;;;5006973;28;20017;-65
2022/10/19 05:35:58;;;;;;;2.28;1.27;;;10.50;81.20;;;;;;5006139;28;20048;-66
2022/10/19 05:38:24;;;;;;;1.50;1.20;;;10.40;81.00;;;;;;5008198;28;20496;-66
2022/10/19 05:40:50;;;;;;;1.95;1.02;;;10.40;81.00;;;;;;5007747;28;20018;-66
2022/10/19 05:43:15;;;;;;;2.38;1.00;;;10.30;81.20;;;;;;5005684;28;20091;-66
2022/10/19 05:45:41;;;;;;;2.97;1.08;;;10.30;81.20;;;;;;5006577;28;20058;-66
2022/10/19 05:48:06;;;;;;;2.95;1.00;;;10.20;81.30;;;;;;5006073;28;20026;-66
2022/10/19 05:50:32;;;;;;;3.58;1.10;;;10.20;81.30;;;;;;5004212;28;20077;-66
2022/10/19 05:52:57;;;;;;;3.05;1.27;;;10.20;81.40;;;;;;5002680;28;20136;-66
2022/10/19 05:55:23;;;;;;;3.10;1.10;;;10.20;81.40;;;;;;5000324;28;20034;-67
2022/10/19 05:57:48;;;;;;;2.50;1.27;;;10.20;81.40;;;;;;5003386;28;20476;-67
2022/10/19 06:00:14;;;;;;;2.90;1.30;;;10.20;81.50;;;;;;5006750;28;20041;-66
2022/10/19 06:02:40;;;;;;;4.05;1.33;;;10.20;81.40;;;;;;5005827;28;20022;-66
2022/10/19 06:05:06;;;;;;;2.70;1.15;;;10.20;81.50;;;;;;5006280;28;20103;-66
2022/10/19 06:07:31;;;;;;;2.10;1.10;;;10.10;81.50;;;;;;5001485;28;20118;-66
2022/10/19 06:09:57;;;;;;;3.63;1.08;;;10.10;81.50;;;;;;5012709;28;20050;-66
2022/10/19 06:12:22;;;;;;;1.58;1.02;;;10.10;81.50;;;;;;5011273;28;20037;-67
2022/10/19 06:14:50;;;;;;;2.53;1.10;;;10.10;81.50;;;;;;5011795;28;20030;-65
2022/10/19 06:17:15;;;;;;;2.92;1.20;;;10.10;81.60;;;;;;5012504;28;20026;-66
2022/10/19 06:19:41;;;;;;;3.08;1.30;;;10.10;81.50;;;;;;5013719;28;20081;-66
2022/10/19 06:22:06;;;;;;;2.78;1.30;;;10.20;81.60;;;;;;5013433;28;20389;-66
2022/10/19 06:24:32;;;;;;;3.20;1.15;;;10.20;81.60;;;;;;5011486;28;20511;-65
2022/10/19 06:26:57;;;;;;;3.10;1.23;;;10.20;81.50;;;;;;5013491;28;20032;-66
2022/10/19 06:29:23;;;;;;;2.15;1.10;;;10.20;81.70;;;;;;5011474;28;20026;-67
2022/10/19 06:31:49;;;;;;;3.00;1.50;;;10.20;81.70;;;;;;5003545;28;20026;-65
2022/10/19 06:34:14;;;;;;;3.30;1.30;;;10.20;81.90;;;;;;5011775;28;20022;-66
2022/10/19 06:36:40;;;;;;;3.17;1.20;;;10.20;82.00;;;;;;5012065;28;20109;-67
2022/10/19 06:39:05;;;;;;;3.28;1.20;;;10.20;82.10;;;;;;5012422;28;20021;-67
2022/10/19 06:41:33;;;;;;;3.38;1.30;;;10.20;82.30;;;;;;5007339;28;21394;-66
2022/10/19 06:43:58;;;;;;;3.08;1.20;;;10.30;82.30;;;;;;5012567;28;20026;-67
2022/10/19 06:46:25;;;;;;;2.72;1.17;;;10.40;82.30;;;;;;5013873;28;20076;-67
2022/10/19 06:48:59;;;;;;;2.92;1.33;;;10.40;82.00;;;;;;5008135;28;20038;-66
2022/10/19 06:51:27;;;;;;;3.60;1.40;;;10.50;82.00;;;;;;5003721;28;20026;-65
2022/10/19 06:53:54;;;;;;;5.38;1.55;;;10.50;82.00;;;;;;5010888;28;20026;-66
2022/10/19 06:56:20;;;;;;;2.10;1.10;;;10.60;82.10;;;;;;5006036;28;20176;-66
2022/10/19 06:58:45;;;;;;;2.33;1.30;;;10.60;82.10;;;;;;5004807;28;20504;-66
2022/10/19 07:01:12;;;;;;;3.22;1.20;;;10.70;82.20;;;;;;5007375;28;20050;-66
2022/10/19 07:03:38;;;;;;;2.08;1.00;;;10.70;82.20;;;;;;5009545;28;20025;-66
2022/10/19 07:06:07;;;;;;;2.35;1.00;;;10.80;82.10;;;;;;5009003;28;20033;-66
2022/10/19 07:08:34;;;;;;;2.92;1.10;;;10.80;82.00;;;;;;5009839;28;20033;-67
2022/10/19 07:11:03;;;;;;;2.90;1.10;;;10.90;82.00;;;;;;5011405;28;20032;-67
2022/10/19 07:13:30;;;;;;;1.60;0.90;;;10.90;81.90;;;;;;5011322;28;20416;-66
2022/10/19 07:16:02;;;;;;;3.70;1.23;;;11.00;82.00;;;;;;5009676;28;20022;-67
2022/10/19 07:18:28;;;;;;;3.42;1.30;;;11.10;82.00;;;;;;5010642;28;20061;-66
2022/10/19 07:20:57;;;;;;;2.13;1.00;;;11.10;82.00;;;;;;5009775;28;20113;-66
2022/10/19 07:23:25;;;;;;;1.92;1.10;;;11.20;82.00;;;;;;5012142;28;20634;-66
2022/10/19 07:25:52;;;;;;;3.15;1.80;;;11.20;82.10;;;;;;5009605;28;20044;-67
2022/10/19 07:28:19;;;;;;;4.45;1.10;;;11.20;82.20;;;;;;5011224;28;20472;-66
2022/10/19 07:30:44;;;;;;;2.05;1.05;;;11.30;82.00;;;;;;5011224;28;20029;-67
2022/10/19 07:33:10;;;;;;;2.78;1.38;;;11.40;81.90;;;;;;5009749;28;20350;-66
2022/10/19 07:35:36;;;;;;;4.53;1.23;;;11.40;82.00;;;;;;5010402;28;20025;-67
2022/10/19 07:38:01;;;;;;;3.35;1.30;;;11.50;82.20;;;;;;5011491;28;20113;-67
2022/10/19 07:40:27;;;;;;;2.47;1.20;;;11.50;82.30;;;;;;5011209;28;20028;-67
2022/10/19 07:42:52;;;;;;;3.03;1.20;;;11.60;82.40;;;;;;5011432;28;20038;-67
2022/10/19 07:45:18;;;;;;;2.00;1.30;;;11.60;82.20;;;;;;5008866;28;20117;-66
2022/10/19 07:47:44;;;;;;;3.13;1.40;;;11.70;82.20;;;;;;5008720;28;20484;-67
2022/10/19 07:50:09;;;;;;;2.75;1.50;;;11.70;82.20;;;;;;5007017;28;20022;-67
2022/10/19 07:52:35;;;;;;;4.25;1.73;;;11.80;82.10;;;;;;5009583;28;20049;-67
2022/10/19 07:55:00;;;;;;;5.22;1.80;;;11.80;82.20;;;;;;5011285;28;20058;-66
2022/10/19 07:57:26;;;;;;;4.82;1.58;;;11.80;82.20;;;;;;5010191;28;20065;-66
2022/10/19 07:59:52;;;;;;;4.18;1.60;;;11.80;82.20;;;;;;5005703;28;20022;-67
2022/10/19 08:02:19;;;;;;;3.63;1.80;;;11.90;82.30;;;;;;5010444;28;20026;-65
2022/10/19 08:04:44;;;;;;;3.75;1.50;;;11.80;82.30;;;;;;5010793;28;20092;-65
2022/10/19 08:07:10;;;;;;;4.75;1.90;;;11.90;82.30;;;;;;5010468;28;20022;-67
2022/10/19 08:09:36;;;;;;;8.82;1.85;;;11.90;82.40;;;;;;5008832;28;20018;-67
2022/10/19 08:12:02;;;;;;;4.47;1.95;;;12.00;82.50;;;;;;5011072;28;20022;-67
2022/10/19 08:14:27;;;;;;;4.35;1.60;;;11.90;82.40;;;;;;5008230;28;20026;-66
2022/10/19 08:16:53;;;;;;;3.60;1.50;;;12.00;82.50;;;;;;5010436;28;20511;-67
2022/10/19 08:19:18;;;;;;;4.50;1.60;;;12.00;82.40;;;;;;5007823;28;20030;-67
2022/10/19 08:21:45;;;;;;;4.15;1.60;;;12.00;82.30;;;;;;5010627;28;20030;-66
2022/10/19 08:24:13;;;;;;;4.30;1.50;;;12.10;82.30;;;;;;5010177;28;20030;-66
2022/10/19 08:26:39;;;;;;;5.35;1.48;;;12.10;82.10;;;;;;5010397;28;20030;-66
2022/10/19 08:29:14;;;;;;;4.53;1.48;;;12.20;82.00;;;;;;5010480;28;20029;-67
2022/10/19 08:31:41;;;;;;;5.13;1.30;;;12.20;81.80;;;;;;5008811;28;20022;-67
2022/10/19 08:34:07;;;;;;;3.35;1.15;;;12.30;81.70;;;;;;5009535;28;20030;-67
2022/10/19 08:36:34;;;;;;;3.15;1.30;;;12.30;81.50;;;;;;5009679;28;20726;-67
2022/10/19 08:39:00;;;;;;;5.90;1.70;;;12.40;81.30;;;;;;5009751;28;20054;-67
2022/10/19 08:41:54;;;;;;;2.42;1.00;;;12.40;81.00;;;;;;5005748;28;20025;-67
2022/10/19 08:44:41;;;;;;;5.18;1.75;;;12.50;81.00;;;;;;5001621;28;20080;-67
2022/10/19 08:47:32;;;;;;;3.20;1.20;;;12.50;80.60;;;;;;5006097;28;20140;-67
2022/10/19 08:49:59;;;;;;;4.00;1.30;;;12.60;80.60;;;;;;5009146;28;20022;-67
2022/10/19 08:52:34;;;;;;;3.10;1.50;;;12.60;80.20;;;;;;5010168;28;20161;-67
2022/10/19 08:55:12;;;;;;;3.42;1.40;;;12.70;80.30;;;;;;5009672;28;20021;-67
2022/10/19 08:58:10;;;;;;;4.70;1.50;;;12.70;80.10;;;;;;5009889;28;20034;-67
2022/10/19 09:00:53;;;;;;;4.18;1.60;;;12.80;79.80;;;;;;5001835;28;20034;-66
2022/10/19 09:03:26;;;;;;;5.45;1.67;;;12.80;79.20;;;;;;5012670;28;20273;-67
2022/10/19 09:06:13;;;;;;;3.58;1.42;;;12.80;78.50;;;;;;4999872;28;20057;-66
2022/10/19 09:08:39;;;;;;;3.25;1.55;;;12.80;78.20;;;;;;5007656;28;20025;-67
2022/10/19 09:11:07;;;;;;;3.42;1.50;;;12.80;77.50;;;;;;5009306;28;20030;-66
2022/10/19 09:13:41;;;;;;;3.28;1.50;;;12.80;76.90;;;;;;5009230;28;20018;-66
2022/10/19 09:16:12;;;;;;;2.78;1.20;;;12.80;77.00;;;;;;5008659;28;20048;-66
2022/10/19 09:18:38;;;;;;;3.63;1.40;;;12.90;76.10;;;;;;5008572;28;20107;-67
2022/10/19 09:21:27;;;;;;;4.45;1.33;;;12.90;76.00;;;;;;5009544;28;20057;-66
2022/10/19 09:24:04;;;;;;;4.10;1.60;;;13.00;76.00;;;;;;5003837;28;20113;-66
2022/10/19 09:26:38;;;;;;;5.90;1.45;;;13.10;75.00;;;;;;5009710;28;20037;-66
2022/10/19 09:29:20;;;;;;;3.80;1.20;;;13.10;74.70;;;;;;5007597;28;20461;-66
2022/10/19 09:31:47;;;;;;;5.28;1.70;;;13.10;74.90;;;;;;5005001;28;20022;-66
2022/10/19 09:34:24;;;;;;;7.10;1.80;;;13.10;74.60;;;;;;5008552;28;20025;-67
2022/10/19 09:36:56;;;;;;;4.15;1.45;;;13.20;74.80;;;;;;5006973;28;20018;-67
2022/10/19 09:39:23;;;;;;;3.72;1.10;;;13.30;74.70;;;;;;5008819;28;20038;-66
2022/10/19 09:42:05;;;;;;;4.28;1.33;;;13.30;74.70;;;;;;5007037;28;20026;-66
2022/10/19 09:44:31;;;;;;;2.80;1.10;;;13.40;74.40;;;;;;5003489;28;20038;-66
2022/10/19 09:46:59;;;;;;;4.03;1.48;;;13.40;74.00;;;;;;5008578;28;20145;-66
2022/10/19 09:49:46;;;;;;;3.85;1.33;;;13.50;74.10;;;;;;5009398;28;20030;-66
2022/10/19 09:52:39;;;;;;;2.35;1.30;;;13.50;73.80;;;;;;5007842;28;20026;-66
2022/10/19 09:55:05;;;;;;;3.72;1.30;;;13.50;73.20;;;;;;5017164;28;20030;-66
2022/10/19 09:57:31;;;;;;;3.90;1.40;;;13.40;71.90;;;;;;5008240;28;20026;-66
2022/10/19 09:59:57;;;;;;;2.97;1.40;;;13.40;72.90;;;;;;5004031;28;20038;-66
2022/10/19 10:02:32;;;;;;;5.30;2.03;;;13.50;73.00;;;;;;5001829;28;20040;-66
2022/10/19 10:05:09;;;;;;;4.82;1.60;;;13.50;72.70;;;;;;5001924;28;20061;-67
2022/10/19 10:07:38;;;;;;;4.57;1.70;;;13.40;73.10;;;;;;5011077;28;20074;-66
2022/10/19 10:10:17;;;;;;;4.20;1.67;;;13.50;73.40;;;;;;5015030;28;20026;-66
2022/10/19 10:12:43;;;;;;;4.88;2.00;;;13.50;73.60;;;;;;5008762;28;20026;-67
2022/10/19 10:15:17;;;;;;;4.43;2.20;;;13.50;73.60;;;;;;5015119;28;20428;-66
2022/10/19 10:17:45;;;;;;;4.10;1.90;;;13.50;73.60;;;;;;5010075;28;20693;-66
2022/10/19 10:20:31;;;;;;;4.20;2.00;;;13.50;73.50;;;;;;5008757;28;20029;-67
2022/10/19 10:23:03;;;;;;;5.15;1.92;;;13.40;73.40;;;;;;5007136;28;20113;-66
2022/10/19 10:25:35;;;;;;;3.20;1.80;;;13.40;73.30;;;;;;4992583;28;20022;-66
2022/10/19 10:28:15;;;;;;;4.63;1.70;;;13.40;73.10;;;;;;5005631;28;20800;-66
2022/10/19 10:30:44;;;;;;;5.50;1.90;;;13.50;72.80;;;;;;5006774;28;20747;-66
2022/10/19 10:33:24;;;;;;;4.78;1.70;;;13.50;72.10;;;;;;5003396;28;20026;-66
2022/10/19 10:35:52;;;;;;;5.15;2.13;;;13.60;72.20;;;;;;5004747;28;20718;-66
2022/10/19 10:38:26;;;;;;;4.05;2.10;;;13.60;71.40;;;;;;5006898;28;20543;-65
2022/10/19 10:40:56;;;;;;;5.72;2.20;;;13.60;71.70;;;;;;5007352;28;20369;-66
2022/10/19 10:43:29;;;;;;;5.35;2.30;;;13.60;72.00;;;;;;5011404;28;20573;-66
2022/10/19 10:46:04;;;;;;;4.53;1.88;;;13.70;72.00;;;;;;5008955;28;20038;-66
2022/10/19 10:48:36;;;;;;;3.78;1.75;;;13.70;71.90;;;;;;4999856;28;20030;-66
2022/10/19 10:51:07;;;;;;;6.93;2.20;;;13.70;72.00;;;;;;5006670;28;20084;-66
2022/10/19 10:53:39;;;;;;;5.43;2.00;;;13.80;71.80;;;;;;5004330;28;20022;-66
2022/10/19 10:56:20;;;;;;;4.40;1.90;;;13.80;71.50;;;;;;5010794;28;20065;-66
2022/10/19 10:59:11;;;;;;;3.42;1.77;;;13.90;70.90;;;;;;5010572;28;20121;-66
2022/10/19 11:01:44;;;;;;;8.57;2.25;;;13.90;71.10;;;;;;5010690;28;20030;-66
2022/10/19 11:04:19;;;;;;;4.32;1.60;;;14.00;70.60;;;;;;5008402;28;20506;-66
2022/10/19 11:06:53;;;;;;;6.80;2.50;;;14.00;70.50;;;;;;5016240;28;20076;-66
2022/10/19 11:09:37;;;;;;;4.95;1.58;;;14.10;70.30;;;;;;5009287;28;20072;-66
2022/10/19 11:12:05;;;;;;;2.92;1.48;;;14.10;70.30;;;;;;5009321;28;20477;-66
2022/10/19 11:15:10;;;;;;;3.83;1.42;;;14.10;69.80;;;;;;5010742;28;20029;-66
2022/10/19 11:17:39;;;;;;;4.63;1.90;;;14.20;69.70;;;;;;5008859;28;20048;-66
2022/10/19 11:20:12;;;;;;;5.55;1.65;;;14.20;69.40;;;;;;5010549;28;20093;-66
2022/10/19 11:22:41;;;;;;;5.45;1.70;;;14.20;69.80;;;;;;5009094;28;20030;-67
2022/10/19 11:25:21;;;;;;;5.70;1.58;;;14.30;69.30;;;;;;5008740;28;20033;-67
2022/10/19 11:28:20;;;;;;;8.38;1.70;;;14.30;69.20;;;;;;5005626;28;20524;-67
2022/10/19 11:31:03;;;;;;;5.03;1.75;;;14.40;69.00;;;;;;5002814;28;20026;-66
2022/10/19 11:33:53;;;;;;;5.00;2.10;;;14.40;68.20;;;;;;5007989;28;20021;-65
2022/10/19 11:36:44;;;;;;;3.83;1.60;;;14.40;67.90;;;;;;5009690;28;20061;-65
2022/10/19 11:39:33;;;;;;;3.30;1.40;;;14.30;68.00;;;;;;5007441;28;20481;-66
2022/10/19 11:42:19;;;;;;;2.53;1.35;;;14.40;68.50;;;;;;5007948;28;20037;-65
2022/10/19 11:45:20;;;;;;;6.50;2.10;;;14.60;68.40;;;;;;5003906;28;20105;-65
2022/10/19 11:48:23;;;;;;;3.60;1.70;;;14.50;68.00;;;;;;4994980;28;20033;-66
2022/10/19 11:50:52;;;;;;;4.43;1.80;;;14.40;68.00;;;;;;5006415;28;20049;-66
2022/10/19 11:53:43;;;;;;;4.55;1.85;;;14.40;68.10;;;;;;5011629;28;20144;-66
2022/10/19 11:56:17;;;;;;;3.25;1.60;;;14.50;68.20;;;;;;5011074;28;20488;-65
2022/10/19 11:59:07;;;;;;;4.18;1.40;;;14.60;67.80;;;;;;5010271;28;20033;-65
2022/10/19 12:01:33;;;;;;;4.00;1.77;;;14.70;68.00;;;;;;4996787;28;20560;-65
2022/10/19 12:04:38;;;;;;;11.90;8.10;;;14.70;67.00;;;;;;5005935;28;20105;-65
2022/10/19 12:07:24;;;;;;;7.63;5.15;;;14.70;67.40;;;;;;4997323;28;20030;-66
2022/10/19 12:10:07;;;;;;;5.20;1.85;;;14.80;66.80;;;;;;4995045;28;20488;-65
2022/10/19 12:12:37;;;;;;;7.47;2.63;;;14.80;66.60;;;;;;5005840;28;20022;-65
2022/10/19 12:15:28;;;;;;;5.57;2.20;;;14.90;66.40;;;;;;5010507;28;20022;-65
2022/10/19 12:18:00;;;;;;;3.28;1.40;;;15.00;66.50;;;;;;5008397;28;20033;-66
2022/10/19 12:20:41;;;;;;;4.65;2.00;;;15.10;66.20;;;;;;4998517;28;20031;-66
2022/10/19 12:23:20;;;;;;;4.07;1.33;;;15.20;66.00;;;;;;4998238;28;20068;-66
2022/10/19 12:25:46;;;;;;;3.20;1.20;;;15.30;65.80;;;;;;5006785;28;20037;-66
2022/10/19 12:28:26;;;;;;;2.95;1.20;;;15.50;65.70;;;;;;5008956;28;20087;-65
2022/10/19 12:30:53;;;;;;;4.07;1.60;;;15.50;65.20;;;;;;5009176;28;20030;-66
2022/10/19 12:33:35;;;;;;;3.40;1.40;;;15.40;63.80;;;;;;4999970;28;20328;-66
2022/10/19 12:36:22;;;;;;;5.38;1.63;;;15.50;63.80;;;;;;5007768;28;20496;-66
2022/10/19 12:39:14;;;;;;;2.25;1.15;;;15.30;63.10;;;;;;5005914;28;20036;-66
2022/10/19 12:42:03;;;;;;;4.20;1.33;;;15.30;63.80;;;;;;5013451;28;20416;-65
2022/10/19 12:44:46;;;;;;;3.08;1.38;;;15.40;64.20;;;;;;5011064;28;20379;-65
2022/10/19 12:47:19;;;;;;;5.40;1.83;;;15.60;64.10;;;;;;5016208;28;20092;-66
2022/10/19 12:49:54;;;;;;;4.22;1.70;;;15.70;63.50;;;;;;5022894;28;20056;-65
2022/10/19 12:52:40;;;;;;;5.13;1.42;;;15.70;63.40;;;;;;5010219;28;20026;-66
2022/10/19 12:55:24;;;;;;;5.13;1.42;;;15.70;63.00;;;;;;5010256;28;20018;-66
2022/10/19 12:58:00;;;;;;;4.57;1.20;;;15.70;63.20;;;;;;4997986;28;20059;-66
2022/10/19 13:00:29;;;;;;;3.40;1.20;;;15.80;63.50;;;;;;5005787;28;20038;-66
2022/10/19 13:03:12;;;;;;;3.20;1.33;;;16.10;63.60;;;;;;5017812;28;20029;-66
2022/10/19 13:05:38;;;;;;;4.85;1.20;;;16.30;63.10;;;;;;5024456;28;20036;-66
2022/10/19 13:08:05;;;;;;;4.80;1.50;;;16.40;62.40;;;;;;4997483;28;20033;-66